createdAt,value
2022-12-11T00:00:55.462Z,34.65
2022-12-11T00:01:55.525Z,34.55
2022-12-11T00:02:55.437Z,34.55
2022-12-11T00:03:55.404Z,34.65
2022-12-11T00:04:55.348Z,34.65
2022-12-11T00:05:55.372Z,34.65
2022-12-11T00:06:55.351Z,34.65
2022-12-11T00:07:55.407Z,34.65
2022-12-11T00:08:55.334Z,34.65
2022-12-11T00:09:55.288Z,34.65
2022-12-11T00:10:55.301Z,34.65
2022-12-11T00:11:55.323Z,34.65
2022-12-11T00:12:55.236Z,34.65
2022-12-11T00:13:55.304Z,34.65
2022-12-11T00:14:55.256Z,34.65
2022-12-11T00:15:55.232Z,34.65
2022-12-11T00:16:55.428Z,34.65
2022-12-11T00:17:55.290Z,34.65
2022-12-11T00:18:55.211Z,34.75
2022-12-11T00:19:55.201Z,34.65
2022-12-11T00:20:55.173Z,34.65
2022-12-11T00:21:55.212Z,34.65
2022-12-11T00:22:55.265Z,34.65
2022-12-11T00:23:55.210Z,34.75
2022-12-11T00:24:55.151Z,34.65
2022-12-11T00:25:55.144Z,34.75
2022-12-11T00:26:55.121Z,34.75
2022-12-11T00:27:55.093Z,34.65
2022-12-11T00:28:55.122Z,34.65
2022-12-11T00:29:55.138Z,34.65
2022-12-11T00:30:55.202Z,34.65
2022-12-11T00:31:55.188Z,34.65
2022-12-11T00:32:55.105Z,34.75
2022-12-11T00:33:55.064Z,34.65
2022-12-11T00:34:55.046Z,34.65
2022-12-11T00:35:55.071Z,34.65
2022-12-11T00:36:55.077Z,34.65
2022-12-11T00:37:55.036Z,34.65
2022-12-11T00:38:55.018Z,34.65
2022-12-11T00:39:55.016Z,34.65
2022-12-11T00:40:55.000Z,34.75
2022-12-11T00:41:55.050Z,34.65
2022-12-11T00:42:54.973Z,34.75
2022-12-11T00:43:54.955Z,34.65
2022-12-11T00:44:54.940Z,34.75
2022-12-11T00:45:55.041Z,34.75
2022-12-11T00:46:54.956Z,34.75
2022-12-11T00:47:55.003Z,34.75
2022-12-11T00:48:54.914Z,34.75
2022-12-11T00:49:54.875Z,34.75
2022-12-11T00:50:54.858Z,34.75
2022-12-11T00:51:54.872Z,34.75
2022-12-11T00:52:54.852Z,34.75
2022-12-11T00:53:54.885Z,34.75
2022-12-11T00:54:54.818Z,34.75
2022-12-11T00:55:54.864Z,34.75
2022-12-11T00:56:54.815Z,34.75
2022-12-11T00:57:54.813Z,34.75
2022-12-11T00:58:54.829Z,34.75
2022-12-11T00:59:54.860Z,34.75
2022-12-11T01:00:54.806Z,34.75
2022-12-11T01:01:55.025Z,34.85
2022-12-11T01:02:54.905Z,34.75
2022-12-11T01:03:54.761Z,34.75
2022-12-11T01:04:54.758Z,34.75
2022-12-11T01:05:54.873Z,34.85
2022-12-11T01:06:54.849Z,34.75
2022-12-11T01:07:54.757Z,34.75
2022-12-11T01:08:54.732Z,34.75
2022-12-11T01:09:54.714Z,34.85
2022-12-11T01:10:54.782Z,34.85
2022-12-11T01:11:54.737Z,34.85
2022-12-11T01:12:54.669Z,34.85
2022-12-11T01:13:54.627Z,34.85
2022-12-11T01:14:54.688Z,34.75
2022-12-11T01:15:54.635Z,34.85
2022-12-11T01:16:54.733Z,34.85
2022-12-11T01:17:54.678Z,34.75
2022-12-11T01:18:54.589Z,34.85
2022-12-11T01:19:54.609Z,34.75
2022-12-11T01:20:54.723Z,34.75
2022-12-11T01:21:54.583Z,34.85
2022-12-11T01:22:54.558Z,34.75
2022-12-11T01:23:54.623Z,34.75
2022-12-11T01:24:54.545Z,34.85
2022-12-11T01:25:54.543Z,34.75
2022-12-11T01:26:54.553Z,34.85
2022-12-11T01:27:54.520Z,34.87
2022-12-11T01:28:54.509Z,34.87
2022-12-11T01:29:54.550Z,34.75
2022-12-11T01:30:54.545Z,34.85
2022-12-11T01:31:54.488Z,34.87
2022-12-11T01:32:54.483Z,34.77
2022-12-11T01:33:54.473Z,34.77
2022-12-11T01:34:54.476Z,34.75
2022-12-11T01:35:54.539Z,34.87
2022-12-11T01:36:54.414Z,34.87
2022-12-11T01:37:54.407Z,34.77
2022-12-11T01:38:54.414Z,34.77
2022-12-11T01:39:54.413Z,34.87
2022-12-11T01:40:54.383Z,34.87
2022-12-11T01:41:54.428Z,34.87
2022-12-11T01:42:54.370Z,34.87
2022-12-11T01:43:54.388Z,34.87
2022-12-11T01:44:54.349Z,34.87
2022-12-11T01:45:54.395Z,34.87
2022-12-11T01:46:54.333Z,34.87
2022-12-11T01:47:54.366Z,34.87
2022-12-11T01:48:54.303Z,34.87
2022-12-11T01:49:54.291Z,34.87
2022-12-11T01:50:54.334Z,34.87
2022-12-11T01:51:54.283Z,34.87
2022-12-11T01:52:54.264Z,34.87
2022-12-11T01:53:54.279Z,34.87
2022-12-11T01:54:54.251Z,34.87
2022-12-11T01:55:54.238Z,34.87
2022-12-11T01:56:54.248Z,34.87
2022-12-11T01:57:54.232Z,34.87
2022-12-11T01:58:54.241Z,34.87
2022-12-11T01:59:54.280Z,34.87
2022-12-11T02:00:54.284Z,34.87
2022-12-11T02:01:54.162Z,34.87
2022-12-11T02:02:54.227Z,34.87
2022-12-11T02:03:54.169Z,34.87
2022-12-11T02:04:54.210Z,34.87
2022-12-11T02:05:54.238Z,34.77
2022-12-11T02:06:54.120Z,34.87
2022-12-11T02:07:54.190Z,34.77
2022-12-11T02:08:54.108Z,34.87
2022-12-11T02:09:54.190Z,34.87
2022-12-11T02:10:54.122Z,34.87
2022-12-11T02:11:54.131Z,34.77
2022-12-11T02:12:54.059Z,34.77
2022-12-11T02:13:54.039Z,34.87
2022-12-11T02:14:54.029Z,34.77
2022-12-11T02:15:54.021Z,34.87
2022-12-11T02:16:54.063Z,34.87
2022-12-11T02:17:54.088Z,34.87
2022-12-11T02:18:53.983Z,34.87
2022-12-11T02:19:53.983Z,34.87
2022-12-11T02:20:53.992Z,34.87
2022-12-11T02:21:54.048Z,34.77
2022-12-11T02:22:53.971Z,34.87
2022-12-11T02:23:54.001Z,34.87
2022-12-11T02:24:54.000Z,34.77
2022-12-11T02:25:53.902Z,34.77
2022-12-11T02:26:53.907Z,34.77
2022-12-11T02:27:54.091Z,34.87
2022-12-11T02:28:53.885Z,34.87
2022-12-11T02:29:53.965Z,34.77
2022-12-11T02:30:53.882Z,34.87
2022-12-11T02:31:53.952Z,34.77
2022-12-11T02:32:53.863Z,34.87
2022-12-11T02:33:53.811Z,34.77
2022-12-11T02:34:53.925Z,34.77
2022-12-11T02:35:53.862Z,34.87
2022-12-11T02:36:53.840Z,34.87
2022-12-11T02:37:53.790Z,34.87
2022-12-11T02:38:53.775Z,34.87
2022-12-11T02:39:53.819Z,34.77
2022-12-11T02:40:53.758Z,34.77
2022-12-11T02:41:53.813Z,34.87
2022-12-11T02:42:53.767Z,34.77
2022-12-11T02:43:53.717Z,34.77
2022-12-11T02:44:53.715Z,34.77
2022-12-11T02:45:53.794Z,34.87
2022-12-11T02:46:53.702Z,34.77
2022-12-11T02:47:53.769Z,34.77
2022-12-11T02:48:53.659Z,34.77
2022-12-11T02:49:53.825Z,34.77
2022-12-11T02:50:53.638Z,34.77
2022-12-11T02:51:53.637Z,34.77
2022-12-11T02:52:53.646Z,34.77
2022-12-11T02:53:53.663Z,34.77
2022-12-11T02:54:53.665Z,34.77
2022-12-11T02:55:53.606Z,34.77
2022-12-11T02:56:53.621Z,34.77
2022-12-11T02:57:53.644Z,34.77
2022-12-11T02:58:58.373Z,34.87
2022-12-11T02:59:53.604Z,34.77
2022-12-11T03:00:53.582Z,34.77
2022-12-11T03:01:53.568Z,34.87
2022-12-11T03:02:53.550Z,34.77
2022-12-11T03:03:53.505Z,34.87
2022-12-11T03:04:53.510Z,34.87
2022-12-11T03:05:53.592Z,34.87
2022-12-11T03:06:53.528Z,34.87
2022-12-11T03:07:53.500Z,34.77
2022-12-11T03:08:53.487Z,34.87
2022-12-11T03:09:53.515Z,34.77
2022-12-11T03:10:53.441Z,34.77
2022-12-11T03:11:53.503Z,34.87
2022-12-11T03:12:54.129Z,34.77
2022-12-11T03:13:53.577Z,34.77
2022-12-11T03:14:53.432Z,34.77
2022-12-11T03:15:53.397Z,34.77
2022-12-11T03:16:53.387Z,34.77
2022-12-11T03:17:53.437Z,34.77
2022-12-11T03:18:53.377Z,34.77
2022-12-11T03:19:53.359Z,34.77
2022-12-11T03:20:53.348Z,34.77
2022-12-11T03:21:53.342Z,34.77
2022-12-11T03:22:53.339Z,34.77
2022-12-11T03:23:53.923Z,34.77
2022-12-11T03:24:53.349Z,34.77
2022-12-11T03:25:53.329Z,34.77
2022-12-11T03:26:56.570Z,34.77
2022-12-11T03:27:53.283Z,34.77
2022-12-11T03:28:53.348Z,34.77
2022-12-11T03:29:53.369Z,34.77
2022-12-11T03:30:53.350Z,34.77
2022-12-11T03:31:53.251Z,34.77
2022-12-11T03:32:53.254Z,34.77
2022-12-11T03:33:53.254Z,34.77
2022-12-11T03:34:58.038Z,34.77
2022-12-11T03:35:53.297Z,34.77
2022-12-11T03:36:53.200Z,34.77
2022-12-11T03:37:53.172Z,34.77
2022-12-11T03:38:53.203Z,34.77
2022-12-11T03:39:53.176Z,34.77
2022-12-11T03:40:53.182Z,34.77
2022-12-11T03:41:53.232Z,34.67
2022-12-11T03:42:53.147Z,34.67
2022-12-11T03:43:53.208Z,34.67
2022-12-11T03:44:53.120Z,34.67
2022-12-11T03:45:53.144Z,34.77
2022-12-11T03:46:53.102Z,34.77
2022-12-11T03:47:53.138Z,34.67
2022-12-11T03:48:53.092Z,34.67
2022-12-11T03:49:53.081Z,34.67
2022-12-11T03:50:53.059Z,34.69
2022-12-11T03:51:53.048Z,34.78
2022-12-11T03:52:53.012Z,34.77
2022-12-11T03:53:53.110Z,34.78
2022-12-11T03:54:53.014Z,34.78
2022-12-11T03:55:53.027Z,34.78
2022-12-11T03:56:52.982Z,34.78
2022-12-11T03:57:53.006Z,34.78
2022-12-11T03:58:53.235Z,34.69
2022-12-11T03:59:53.019Z,34.69
2022-12-11T04:00:52.990Z,34.78
2022-12-11T04:01:52.999Z,34.78
2022-12-11T04:02:52.928Z,34.69
2022-12-11T04:03:52.964Z,34.69
2022-12-11T04:04:52.923Z,34.78
2022-12-11T04:05:52.958Z,34.69
2022-12-11T04:06:52.900Z,34.78
2022-12-11T04:07:52.917Z,34.69
2022-12-11T04:08:52.909Z,34.69
2022-12-11T04:09:52.865Z,34.69
2022-12-11T04:10:52.873Z,34.69
2022-12-11T04:11:52.969Z,34.69
2022-12-11T04:12:52.845Z,34.69
2022-12-11T04:13:52.865Z,34.69
2022-12-11T04:14:52.815Z,34.69
2022-12-11T04:15:52.859Z,34.69
2022-12-11T04:16:52.797Z,34.69
2022-12-11T04:17:52.916Z,34.69
2022-12-11T04:18:52.785Z,34.69
2022-12-11T04:19:52.768Z,34.69
2022-12-11T04:20:52.767Z,34.69
2022-12-11T04:21:52.765Z,34.69
2022-12-11T04:22:52.733Z,34.69
2022-12-11T04:23:52.796Z,34.69
2022-12-11T04:24:52.719Z,34.69
2022-12-11T04:25:52.715Z,34.69
2022-12-11T04:26:52.746Z,34.69
2022-12-11T04:27:52.682Z,34.69
2022-12-11T04:28:52.684Z,34.69
2022-12-11T04:29:52.744Z,34.69
2022-12-11T04:30:52.713Z,34.69
2022-12-11T04:31:52.661Z,34.69
2022-12-11T04:32:52.710Z,34.69
2022-12-11T04:33:52.652Z,34.69
2022-12-11T04:34:52.628Z,34.69
2022-12-11T04:35:52.639Z,34.69
2022-12-11T04:36:52.657Z,34.69
2022-12-11T04:37:52.607Z,34.69
2022-12-11T04:38:52.586Z,34.69
2022-12-11T04:39:52.573Z,34.69
2022-12-11T04:40:52.557Z,34.69
2022-12-11T04:41:52.523Z,34.78
2022-12-11T04:42:52.588Z,34.69
2022-12-11T04:43:52.534Z,34.69
2022-12-11T04:44:52.527Z,34.69
2022-12-11T04:45:52.509Z,34.69
2022-12-11T04:46:52.553Z,34.69
2022-12-11T04:47:52.595Z,34.69
2022-12-11T04:48:57.038Z,34.69
2022-12-11T04:49:52.466Z,34.78
2022-12-11T04:50:52.470Z,34.78
2022-12-11T04:51:52.449Z,34.78
2022-12-11T04:52:52.450Z,34.78
2022-12-11T04:53:52.482Z,34.69
2022-12-11T04:54:52.414Z,34.78
2022-12-11T04:55:52.436Z,34.78
2022-12-11T04:56:52.413Z,34.78
2022-12-11T04:57:52.393Z,34.78
2022-12-11T04:58:52.389Z,34.78
2022-12-11T04:59:52.449Z,34.69
2022-12-11T05:00:52.361Z,34.78
2022-12-11T05:01:52.470Z,34.78
2022-12-11T05:02:52.434Z,34.78
2022-12-11T05:03:52.345Z,34.78
2022-12-11T05:04:52.330Z,34.78
2022-12-11T05:05:52.378Z,34.78
2022-12-11T05:06:52.301Z,34.78
2022-12-11T05:07:52.372Z,34.78
2022-12-11T05:08:52.276Z,34.78
2022-12-11T05:09:52.278Z,34.78
2022-12-11T05:10:52.251Z,34.78
2022-12-11T05:11:52.227Z,34.78
2022-12-11T05:12:52.255Z,34.78
2022-12-11T05:13:52.255Z,34.78
2022-12-11T05:14:52.265Z,34.78
2022-12-11T05:15:52.307Z,34.78
2022-12-11T05:16:52.228Z,34.78
2022-12-11T05:17:52.285Z,34.78
2022-12-11T05:18:52.179Z,34.78
2022-12-11T05:19:52.175Z,34.78
2022-12-11T05:20:52.142Z,34.78
2022-12-11T05:21:52.146Z,34.78
2022-12-11T05:22:52.137Z,34.78
2022-12-11T05:23:52.171Z,34.78
2022-12-11T05:24:52.137Z,34.78
2022-12-11T05:25:52.111Z,34.78
2022-12-11T05:26:52.095Z,34.78
2022-12-11T05:27:52.076Z,34.69
2022-12-11T05:28:52.071Z,34.78
2022-12-11T05:29:57.747Z,34.69
2022-12-11T05:30:52.152Z,34.78
2022-12-11T05:31:52.041Z,34.78
2022-12-11T05:32:52.074Z,34.78
2022-12-11T05:33:52.035Z,34.78
2022-12-11T05:34:52.014Z,34.78
2022-12-11T05:35:52.069Z,34.78
2022-12-11T05:36:51.998Z,34.78
2022-12-11T05:37:51.968Z,34.78
2022-12-11T05:38:51.992Z,34.78
2022-12-11T05:39:51.969Z,34.78
2022-12-11T05:40:52.036Z,34.78
2022-12-11T05:41:51.998Z,34.78
2022-12-11T05:42:51.932Z,34.78
2022-12-11T05:43:51.933Z,34.78
2022-12-11T05:44:51.943Z,34.78
2022-12-11T05:45:51.884Z,34.78
2022-12-11T05:46:51.980Z,34.78
2022-12-11T05:47:51.992Z,34.78
2022-12-11T05:48:51.883Z,34.78
2022-12-11T05:49:51.772Z,34.78
2022-12-11T05:50:51.865Z,34.78
2022-12-11T05:51:51.898Z,34.78
2022-12-11T05:52:51.860Z,34.78
2022-12-11T05:53:51.891Z,34.89
2022-12-11T05:54:52.108Z,34.78
2022-12-11T05:55:51.827Z,34.78
2022-12-11T05:56:51.830Z,34.89
2022-12-11T05:57:51.790Z,34.78
2022-12-11T05:58:51.767Z,34.78
2022-12-11T05:59:51.817Z,34.78
2022-12-11T06:00:51.775Z,34.78
2022-12-11T06:01:51.845Z,34.89
2022-12-11T06:02:51.874Z,34.78
2022-12-11T06:03:51.711Z,34.78
2022-12-11T06:04:51.618Z,34.89
2022-12-11T06:05:51.765Z,34.78
2022-12-11T06:06:51.750Z,34.78
2022-12-11T06:07:51.800Z,34.78
2022-12-11T06:08:51.697Z,34.89
2022-12-11T06:09:51.586Z,34.78
2022-12-11T06:10:51.640Z,34.89
2022-12-11T06:11:51.688Z,34.89
2022-12-11T06:12:51.634Z,34.89
2022-12-11T06:13:51.629Z,34.78
2022-12-11T06:14:51.516Z,34.89
2022-12-11T06:15:51.600Z,34.89
2022-12-11T06:16:51.619Z,34.89
2022-12-11T06:17:51.608Z,34.89
2022-12-11T06:18:52.935Z,34.89
2022-12-11T06:19:51.543Z,34.89
2022-12-11T06:20:51.562Z,34.78
2022-12-11T06:21:51.583Z,34.89
2022-12-11T06:22:51.526Z,34.89
2022-12-11T06:23:51.601Z,34.89
2022-12-11T06:24:51.446Z,34.89
2022-12-11T06:25:51.480Z,34.78
2022-12-11T06:26:51.479Z,34.89
2022-12-11T06:27:51.485Z,34.89
2022-12-11T06:28:51.465Z,34.89
2022-12-11T06:29:51.551Z,34.89
2022-12-11T06:30:51.460Z,34.89
2022-12-11T06:31:51.501Z,34.89
2022-12-11T06:32:51.440Z,34.78
2022-12-11T06:33:51.421Z,34.78
2022-12-11T06:34:51.291Z,34.89
2022-12-11T06:35:51.494Z,34.89
2022-12-11T06:36:51.440Z,34.89
2022-12-11T06:37:51.392Z,34.89
2022-12-11T06:38:51.368Z,34.89
2022-12-11T06:39:51.382Z,34.89
2022-12-11T06:40:51.361Z,34.89
2022-12-11T06:41:51.399Z,34.91
2022-12-11T06:42:51.316Z,34.78
2022-12-11T06:43:51.338Z,34.89
2022-12-11T06:44:51.222Z,34.91
2022-12-11T06:45:51.369Z,34.91
2022-12-11T06:46:51.421Z,34.78
2022-12-11T06:47:51.347Z,34.89
2022-12-11T06:48:51.265Z,34.78
2022-12-11T06:49:51.260Z,34.78
2022-12-11T06:50:51.247Z,34.78
2022-12-11T06:51:51.287Z,34.78
2022-12-11T06:52:51.270Z,34.78
2022-12-11T06:53:51.293Z,34.78
2022-12-11T06:54:51.121Z,34.89
2022-12-11T06:55:51.187Z,34.78
2022-12-11T06:56:51.187Z,34.78
2022-12-11T06:57:51.160Z,34.80
2022-12-11T06:58:51.164Z,34.80
2022-12-11T06:59:51.231Z,34.80
2022-12-11T07:00:51.275Z,34.80
2022-12-11T07:01:51.184Z,34.80
2022-12-11T07:02:51.142Z,34.80
2022-12-11T07:03:51.144Z,34.80
2022-12-11T07:04:55.039Z,34.78
2022-12-11T07:05:51.177Z,34.80
2022-12-11T07:06:51.114Z,34.78
2022-12-11T07:07:51.139Z,34.80
2022-12-11T07:08:51.046Z,34.80
2022-12-11T07:09:51.047Z,34.80
2022-12-11T07:10:51.104Z,34.70
2022-12-11T07:11:51.069Z,34.80
2022-12-11T07:12:51.055Z,34.80
2022-12-11T07:13:51.022Z,34.80
2022-12-11T07:14:51.003Z,34.80
2022-12-11T07:15:50.988Z,34.80
2022-12-11T07:16:51.027Z,34.80
2022-12-11T07:17:51.022Z,34.80
2022-12-11T07:18:50.974Z,34.80
2022-12-11T07:19:51.017Z,34.80
2022-12-11T07:20:50.942Z,34.80
2022-12-11T07:21:50.919Z,34.80
2022-12-11T07:22:50.935Z,34.80
2022-12-11T07:23:51.005Z,34.80
2022-12-11T07:24:50.903Z,34.80
2022-12-11T07:25:51.049Z,34.80
2022-12-11T07:26:50.920Z,34.80
2022-12-11T07:27:50.880Z,34.80
2022-12-11T07:28:50.861Z,34.80
2022-12-11T07:29:50.883Z,34.70
2022-12-11T07:30:50.860Z,34.70
2022-12-11T07:31:50.867Z,34.80
2022-12-11T07:32:50.839Z,34.70
2022-12-11T07:33:50.822Z,34.80
2022-12-11T07:34:52.082Z,34.70
2022-12-11T07:35:50.882Z,34.80
2022-12-11T07:36:50.768Z,34.80
2022-12-11T07:37:50.782Z,34.70
2022-12-11T07:38:50.749Z,34.70
2022-12-11T07:39:50.750Z,34.70
2022-12-11T07:40:50.799Z,34.80
2022-12-11T07:41:50.832Z,34.80
2022-12-11T07:42:50.746Z,34.80
2022-12-11T07:43:50.730Z,34.70
2022-12-11T07:44:50.701Z,34.70
2022-12-11T07:45:50.728Z,34.70
2022-12-11T07:46:50.686Z,34.80
2022-12-11T07:47:50.738Z,34.70
2022-12-11T07:48:50.653Z,34.80
2022-12-11T07:49:50.660Z,34.70
2022-12-11T07:50:50.653Z,34.70
2022-12-11T07:51:50.646Z,34.70
2022-12-11T07:52:50.637Z,34.80
2022-12-11T07:53:50.684Z,34.80
2022-12-11T07:54:50.518Z,34.70
2022-12-11T07:55:50.636Z,34.70
2022-12-11T07:56:53.728Z,34.70
2022-12-11T07:57:50.601Z,34.60
2022-12-11T07:58:50.582Z,34.70
2022-12-11T07:59:50.702Z,34.60
2022-12-11T08:00:50.584Z,34.60
2022-12-11T08:01:50.567Z,34.60
2022-12-11T08:02:50.569Z,34.70
2022-12-11T08:03:50.540Z,34.70
2022-12-11T08:04:50.513Z,34.70
2022-12-11T08:05:50.567Z,34.70
2022-12-11T08:06:50.504Z,34.80
2022-12-11T08:07:50.485Z,34.70
2022-12-11T08:08:50.501Z,34.91
2022-12-11T08:09:50.494Z,34.70
2022-12-11T08:10:50.466Z,34.70
2022-12-11T08:11:50.588Z,34.70
2022-12-11T08:12:50.421Z,34.70
2022-12-11T08:13:50.413Z,34.80
2022-12-11T08:14:50.495Z,34.91
2022-12-11T08:15:50.398Z,34.91
2022-12-11T08:16:50.429Z,34.91
2022-12-11T08:17:50.457Z,35.00
2022-12-11T08:18:50.370Z,34.91
2022-12-11T08:19:50.391Z,34.91
2022-12-11T08:20:50.412Z,34.91
2022-12-11T08:21:50.322Z,35.00
2022-12-11T08:22:53.463Z,35.00
2022-12-11T08:23:50.407Z,35.00
2022-12-11T08:24:50.426Z,35.00
2022-12-11T08:25:50.167Z,35.21
2022-12-11T08:26:50.319Z,35.11
2022-12-11T08:27:50.276Z,35.31
2022-12-11T08:28:50.264Z,35.21
2022-12-11T08:29:50.471Z,35.11
2022-12-11T08:30:50.348Z,35.51
2022-12-11T08:31:50.231Z,35.31
2022-12-11T08:32:50.242Z,35.41
2022-12-11T08:33:50.231Z,35.31
2022-12-11T08:34:50.209Z,35.31
2022-12-11T08:35:50.354Z,35.41
2022-12-11T08:36:50.205Z,35.41
2022-12-11T08:37:50.187Z,35.31
2022-12-11T08:38:50.162Z,35.41
2022-12-11T08:39:50.282Z,35.31
2022-12-11T08:40:50.150Z,35.31
2022-12-11T08:41:50.180Z,35.31
2022-12-11T08:42:50.141Z,35.31
2022-12-11T08:43:50.107Z,35.31
2022-12-11T08:44:50.153Z,35.41
2022-12-11T08:45:50.186Z,35.31
2022-12-11T08:46:50.069Z,35.41
2022-12-11T08:47:50.119Z,35.31
2022-12-11T08:48:50.082Z,35.41
2022-12-11T08:49:50.073Z,35.31
2022-12-11T08:50:50.046Z,35.31
2022-12-11T08:51:50.031Z,35.31
2022-12-11T08:52:50.019Z,35.31
2022-12-11T08:53:50.092Z,35.31
2022-12-11T08:54:49.994Z,35.31
2022-12-11T08:55:49.928Z,35.21
2022-12-11T08:56:53.544Z,35.11
2022-12-11T08:57:49.978Z,35.21
2022-12-11T08:58:49.990Z,35.21
2022-12-11T08:59:50.056Z,35.21
2022-12-11T09:00:49.960Z,35.21
2022-12-11T09:01:49.998Z,35.21
2022-12-11T09:02:49.969Z,35.21
2022-12-11T09:03:49.886Z,35.21
2022-12-11T09:04:49.934Z,35.21
2022-12-11T09:05:50.105Z,35.21
2022-12-11T09:06:49.889Z,35.21
2022-12-11T09:07:49.929Z,35.21
2022-12-11T09:08:52.598Z,35.21
2022-12-11T09:09:49.836Z,35.21
2022-12-11T09:10:49.862Z,35.21
2022-12-11T09:11:49.895Z,35.21
2022-12-11T09:12:49.885Z,35.21
2022-12-11T09:13:49.791Z,35.21
2022-12-11T09:14:49.868Z,35.21
2022-12-11T09:15:49.885Z,35.21
2022-12-11T09:16:49.864Z,35.11
2022-12-11T09:17:49.885Z,35.21
2022-12-11T09:18:49.927Z,35.21
2022-12-11T09:19:49.764Z,35.21
2022-12-11T09:20:49.807Z,35.21
2022-12-11T09:21:49.786Z,35.21
2022-12-11T09:22:49.742Z,35.11
2022-12-11T09:23:49.792Z,35.21
2022-12-11T09:24:49.710Z,35.21
2022-12-11T09:25:49.712Z,35.11
2022-12-11T09:26:49.691Z,35.11
2022-12-11T09:27:49.728Z,35.11
2022-12-11T09:28:49.678Z,35.21
2022-12-11T09:29:49.764Z,35.21
2022-12-11T09:30:49.809Z,35.11
2022-12-11T09:31:49.647Z,35.21
2022-12-11T09:32:49.663Z,35.21
2022-12-11T09:33:49.701Z,35.21
2022-12-11T09:34:49.602Z,35.11
2022-12-11T09:35:49.660Z,35.11
2022-12-11T09:36:49.623Z,35.21
2022-12-11T09:37:49.569Z,35.11
2022-12-11T09:38:49.563Z,35.21
2022-12-11T09:39:49.565Z,35.11
2022-12-11T09:40:49.595Z,35.21
2022-12-11T09:41:49.607Z,35.21
2022-12-11T09:42:49.578Z,35.21
2022-12-11T09:43:49.551Z,35.21
2022-12-11T09:44:49.542Z,35.21
2022-12-11T09:45:49.549Z,35.21
2022-12-11T09:46:49.608Z,35.21
2022-12-11T09:47:49.587Z,35.21
2022-12-11T09:48:49.530Z,35.21
2022-12-11T09:49:49.474Z,35.21
2022-12-11T09:50:49.572Z,35.21
2022-12-11T09:51:49.450Z,35.21
2022-12-11T09:52:49.421Z,35.21
2022-12-11T09:53:49.480Z,35.21
2022-12-11T09:54:49.407Z,35.21
2022-12-11T09:55:49.365Z,35.21
2022-12-11T09:56:49.416Z,35.21
2022-12-11T09:57:49.395Z,35.21
2022-12-11T09:58:49.356Z,35.21
2022-12-11T09:59:49.421Z,35.21
2022-12-11T10:00:49.375Z,35.21
2022-12-11T10:01:49.356Z,35.21
2022-12-11T10:02:49.433Z,35.21
2022-12-11T10:03:49.390Z,35.21
2022-12-11T10:04:49.243Z,35.21
2022-12-11T10:05:49.371Z,35.21
2022-12-11T10:06:49.279Z,35.21
2022-12-11T10:07:49.399Z,35.21
2022-12-11T10:08:49.256Z,35.21
2022-12-11T10:09:49.247Z,35.21
2022-12-11T10:10:49.302Z,35.21
2022-12-11T10:11:56.119Z,35.21
2022-12-11T10:12:49.230Z,35.21
2022-12-11T10:13:49.217Z,35.21
2022-12-11T10:14:49.285Z,35.21
2022-12-11T10:15:49.262Z,35.21
2022-12-11T10:16:49.226Z,35.21
2022-12-11T10:17:49.191Z,35.21
2022-12-11T10:18:49.256Z,35.21
2022-12-11T10:19:49.195Z,35.21
2022-12-11T10:20:49.170Z,35.21
2022-12-11T10:21:49.127Z,35.21
2022-12-11T10:22:49.123Z,35.21
2022-12-11T10:23:49.191Z,35.21
2022-12-11T10:25:49.134Z,35.31
2022-12-11T10:26:49.082Z,35.21
2022-12-11T10:27:49.066Z,35.21
2022-12-11T10:28:49.038Z,35.21
2022-12-11T10:29:49.089Z,35.21
2022-12-11T10:30:49.093Z,35.21
2022-12-11T10:31:49.029Z,35.31
2022-12-11T10:32:49.001Z,35.31
2022-12-11T10:33:49.040Z,35.31
2022-12-11T10:34:49.075Z,35.21
2022-12-11T10:35:49.064Z,35.31
2022-12-11T10:36:48.989Z,35.21
2022-12-11T10:37:48.965Z,35.31
2022-12-11T10:38:49.069Z,35.31
2022-12-11T10:39:48.950Z,35.31
2022-12-11T10:40:48.994Z,35.31
2022-12-11T10:41:49.013Z,35.31
2022-12-11T10:42:48.944Z,35.31
2022-12-11T10:43:48.975Z,35.21
2022-12-11T10:44:48.910Z,35.31
2022-12-11T10:45:48.891Z,35.31
2022-12-11T10:46:48.978Z,35.31
2022-12-11T10:47:48.905Z,35.31
2022-12-11T10:48:48.934Z,35.41
2022-12-11T10:49:48.841Z,35.31
2022-12-11T10:50:48.826Z,35.31
2022-12-11T10:51:48.882Z,35.31
2022-12-11T10:52:48.816Z,35.41
2022-12-11T10:53:48.857Z,35.31
2022-12-11T10:54:48.818Z,35.31
2022-12-11T10:55:48.776Z,35.41
2022-12-11T10:56:48.882Z,35.41
2022-12-11T10:57:48.756Z,35.41
2022-12-11T10:58:48.755Z,35.31
2022-12-11T10:59:48.797Z,35.31
2022-12-11T11:00:48.725Z,35.41
2022-12-11T11:01:48.795Z,35.41
2022-12-11T11:02:48.812Z,35.41
2022-12-11T11:03:48.744Z,35.41
2022-12-11T11:04:48.711Z,35.41
2022-12-11T11:05:49.620Z,35.41
2022-12-11T11:06:48.679Z,35.41
2022-12-11T11:07:48.700Z,35.31
2022-12-11T11:08:48.673Z,35.31
2022-12-11T11:09:48.669Z,35.41
2022-12-11T11:10:48.660Z,35.41
2022-12-11T11:11:48.690Z,35.41
2022-12-11T11:12:48.543Z,35.41
2022-12-11T11:13:48.593Z,35.41
2022-12-11T11:14:48.709Z,35.41
2022-12-11T11:15:48.775Z,35.41
2022-12-11T11:16:48.571Z,35.41
2022-12-11T11:17:55.076Z,35.41
2022-12-11T11:18:48.721Z,35.41
2022-12-11T11:19:48.564Z,35.41
2022-12-11T11:20:48.581Z,35.41
2022-12-11T11:21:48.519Z,35.41
2022-12-11T11:22:48.538Z,35.41
2022-12-11T11:23:53.327Z,35.41
2022-12-11T11:24:48.588Z,35.41
2022-12-11T11:25:48.573Z,35.41
2022-12-11T11:27:12.179Z,35.41
2022-12-11T11:27:48.502Z,35.41
2022-12-11T11:28:48.481Z,35.41
2022-12-11T11:29:52.931Z,35.41
2022-12-11T11:30:48.379Z,35.41
2022-12-11T11:31:48.438Z,35.41
2022-12-11T11:32:48.439Z,35.41
2022-12-11T11:33:48.454Z,35.41
2022-12-11T11:34:48.435Z,35.41
2022-12-11T11:35:48.424Z,35.41
2022-12-11T11:36:48.416Z,35.41
2022-12-11T11:37:48.491Z,35.41
2022-12-11T11:38:48.435Z,35.41
2022-12-11T11:39:48.386Z,35.51
2022-12-11T11:40:48.407Z,35.51
2022-12-11T11:41:48.419Z,35.51
2022-12-11T11:42:48.293Z,35.51
2022-12-11T11:43:48.376Z,35.51
2022-12-11T11:44:48.333Z,35.51
2022-12-11T11:45:48.352Z,35.53
2022-12-11T11:46:48.377Z,35.51
2022-12-11T11:47:48.369Z,35.51
2022-12-11T11:48:48.315Z,35.51
2022-12-11T11:49:48.209Z,35.41
2022-12-11T11:50:48.179Z,35.51
2022-12-11T11:51:48.166Z,35.51
2022-12-11T11:52:48.146Z,35.51
2022-12-11T11:53:48.177Z,35.51
2022-12-11T11:54:48.115Z,35.51
2022-12-11T11:55:48.166Z,35.51
2022-12-11T11:56:48.195Z,35.51
2022-12-11T11:57:48.176Z,35.51
2022-12-11T11:58:48.146Z,35.51
2022-12-11T11:59:48.285Z,35.51
2022-12-11T12:00:48.144Z,35.51
2022-12-11T12:01:48.160Z,35.51
2022-12-11T12:02:48.151Z,35.51
2022-12-11T12:03:48.099Z,35.51
2022-12-11T12:04:48.118Z,35.53
2022-12-11T12:05:48.392Z,35.51
2022-12-11T12:06:50.915Z,35.53
2022-12-11T12:07:48.220Z,35.51
2022-12-11T12:08:48.079Z,35.53
2022-12-11T12:09:48.098Z,35.53
2022-12-11T12:10:48.072Z,35.51
2022-12-11T12:11:48.018Z,35.51
2022-12-11T12:12:48.090Z,35.51
2022-12-11T12:13:49.943Z,35.51
2022-12-11T12:14:52.570Z,35.51
2022-12-11T12:15:47.997Z,35.51
2022-12-11T12:16:53.031Z,35.53
2022-12-11T12:17:52.017Z,35.51
2022-12-11T12:18:47.929Z,35.53
2022-12-11T12:19:47.991Z,35.51
2022-12-11T12:20:47.981Z,35.51
2022-12-11T12:21:47.934Z,35.53
2022-12-11T12:22:48.011Z,35.51
2022-12-11T12:23:48.018Z,35.53
2022-12-11T12:24:47.943Z,35.51
2022-12-11T12:25:47.885Z,35.53
2022-12-11T12:26:47.887Z,35.53
2022-12-11T12:27:52.738Z,35.53
2022-12-11T12:28:47.866Z,35.53
2022-12-11T12:29:47.945Z,35.53
2022-12-11T12:30:47.878Z,35.53
2022-12-11T12:31:47.889Z,35.53
2022-12-11T12:32:47.874Z,35.53
2022-12-11T12:33:47.787Z,35.53
2022-12-11T12:34:47.837Z,35.53
2022-12-11T12:35:47.824Z,35.53
2022-12-11T12:36:47.783Z,35.63
2022-12-11T12:37:47.833Z,35.53
2022-12-11T12:38:47.771Z,35.53
2022-12-11T12:39:47.766Z,35.53
2022-12-11T12:40:47.763Z,35.53
2022-12-11T12:41:47.769Z,35.53
2022-12-11T12:42:47.760Z,35.53
2022-12-11T12:43:47.779Z,35.53
2022-12-11T12:44:47.693Z,35.53
2022-12-11T12:45:47.771Z,35.53
2022-12-11T12:46:47.704Z,35.53
2022-12-11T12:47:51.973Z,35.53
2022-12-11T12:48:47.657Z,35.63
2022-12-11T12:49:47.592Z,35.53
2022-12-11T12:50:47.620Z,35.53
2022-12-11T12:51:47.623Z,35.53
2022-12-11T12:52:47.688Z,35.53
2022-12-11T12:53:47.673Z,35.53